ADDS METAR Data INFO
IDs: Format: Raw Decoded Include TAF

Data at: 1010 UTC 14 Dec 2017

KOAJ 140956Z AUTO 21005KT 10SM CLR 01/M04 A2977 RMK AO2 SLP087 T00111044 FZRANO
KOAJ 140856Z AUTO 20006KT 10SM CLR 01/M04 A2977 RMK AO2 SLP085 T00111039 58014 FZRANO
KOAJ 140756Z AUTO 20007KT 10SM CLR 01/M04 A2979 RMK AO2 SLP093 T00111039 FZRANO
KOAJ 140656Z AUTO 20007KT 10SM CLR 02/M03 A2979 RMK AO2 SLP095 T00221033 FZRANO
KOAJ 140556Z AUTO 20008KT 10SM CLR 03/M03 A2981 RMK AO2 SLP099 T00331033 10044 21006 56014
KOAJ 140456Z AUTO 20008KT 10SM CLR 04/M04 A2982 RMK AO2 SLP102 T00391039 400721039
KOAJ 140356Z AUTO 21008KT 10SM FEW120 03/M05 A2983 RMK AO2 SLP106 T00281050
KOAJ 140256Z AUTO 19008KT 10SM CLR 01/M06 A2985 RMK AO2 SLP113 T00111056 56017 FZRANO
KOAJ 140156Z AUTO 21005KT 10SM CLR 01/M06 A2987 RMK AO2 SLP119 T00061056 FZRANO
KOAJ 140056Z AUTO 18006KT 10SM CLR 01/M07 A2988 RMK AO2 SLP122 T00111067 FZRANO
KOAJ 132356Z AUTO 20003KT 10SM CLR 01/M07 A2990 RMK AO2 SLP130 T00061067 10072 20000 55001 FZRANO
KOAJ 132256Z AUTO 20003KT 10SM CLR 01/M06 A2990 RMK AO2 SLP129 T00111061 FZRANO
KOAJ 132156Z AUTO 19003KT 10SM CLR 04/M08 A2990 RMK AO2 SLP131 T00391078
KOAJ 132056Z AUTO 26005KT 10SM CLR 07/M10 A2990 RMK AO2 SLP131 T00671100 56015
KOAJ 131956Z AUTO VRB06KT 10SM CLR 07/M11 A2992 RMK AO2 SLP136 T00671106
KOAJ 131856Z AUTO 26008KT 10SM CLR 07/M11 A2992 RMK AO2 SLP138 T00671111
KOAJ 131756Z AUTO 26008KT 230V300 10SM CLR 06/M13 A2995 RMK AO2 SLP146 T00561128 10061 21028 58022
KOAJ 131656Z AUTO 27011G16KT 240V300 10SM CLR 05/M13 A2997 RMK AO2 SLP153 T00501128
KOAJ 131556Z AUTO 30010G16KT 10SM CLR 04/M13 A3000 RMK AO2 SLP165 T00391133
KOAJ 131456Z AUTO 30010G17KT 260V350 10SM CLR 03/M13 A3001 RMK AO2 SLP168 T00281128 51014
KOAJ 131356Z AUTO VRB05KT 10SM CLR 01/M10 A3001 RMK AO2 SLP167 T00061100 FZRANO
KOAJ 131256Z AUTO 00000KT 10SM CLR M01/M09 A2999 RMK AO2 SLP162 T10111089 FZRANO
KOAJ 131156Z AUTO 00000KT 10SM CLR M03/M09 A2997 RMK AO2 SLP154 7//// T10281094 10011 21039 51023 FZRANO
KOAJ 131056Z AUTO VRB03KT 10SM CLR M03/M08 A2995 RMK AO2 SLP147 T10331083 FZRANO
KOAJ 130956Z AUTO 00000KT 10SM CLR M02/M08 A2993 RMK AO2 SLP141 T10221083 FZRANO
KOAJ 130856Z AUTO VRB04KT 10SM CLR M02/M08 A2990 RMK AO2 SLP131 T10171083 52024 FZRANO
KOAJ 130756Z AUTO VRB04KT 10SM CLR M01/M08 A2988 RMK AO2 SLP123 T10111083 FZRANO
KOAJ 130656Z AUTO VRB03KT 10SM CLR 00/M08 A2985 RMK AO2 SLP114 T00001083 FZRANO
KOAJ 130556Z AUTO VRB05KT 10SM CLR 01/M09 A2983 RMK AO2 SLP107 T00111089 10083 20011 51029 FZRANO
KOAJ 130456Z AUTO VRB05KT 10SM CLR 02/M07 A2981 RMK AO2 SLP101 T00171067 401611011 FZRANO
KOAJ 130356Z AUTO VRB03KT 10SM FEW080 04/M07 A2979 RMK AO2 SLP092 T00391072
KOAJ 130256Z AUTO 29010G23KT 10SM SCT043 OVC090 06/M06 A2974 RMK AO2 SLP077 T00611061 53031
KOAJ 130156Z AUTO 29008KT 10SM BKN065 OVC085 08/00 A2969 RMK AO2 SLP058 T00780000
KOAJ 130056Z AUTO 22003KT 10SM BKN075 04/02 A2966 RMK AO2 SLP047 T00440022
KOAJ 122356Z AUTO 25003KT 10SM CLR 07/02 A2965 RMK AO2 SLP046 6//// T00720022 10161 20061 53012
KOAJ 122256Z AUTO 24003KT 10SM BKN065 08/03 A2964 RMK AO2 SLP042 T00830033